sensor_id;sensor_type;location;lat;lon;timestamp;temperature;humidity
12119;DHT22;6123;48.864;9.200;2023-10-13T00:00:29;17.70;99.90
12119;DHT22;6123;48.864;9.200;2023-10-13T00:02:58;17.70;99.90
12119;DHT22;6123;48.864;9.200;2023-10-13T00:05:30;17.70;99.90
12119;DHT22;6123;48.864;9.200;2023-10-13T00:08:00;17.70;99.90
12119;DHT22;6123;48.864;9.200;2023-10-13T00:10:27;17.60;99.90
12119;DHT22;6123;48.864;9.200;2023-10-13T00:12:53;17.60;99.90
12119;DHT22;6123;48.864;9.200;2023-10-13T00:15:18;16.80;99.90
12119;DHT22;6123;48.864;9.200;2023-10-13T00:17:53;17.50;99.90
12119;DHT22;6123;48.864;9.200;2023-10-13T00:20:21;17.50;99.90
12119;DHT22;6123;48.864;9.200;2023-10-13T00:23:03;17.40;99.90
12119;DHT22;6123;48.864;9.200;2023-10-13T00:25:29;17.30;99.90
12119;DHT22;6123;48.864;9.200;2023-10-13T00:27:54;17.20;99.90
12119;DHT22;6123;48.864;9.200;2023-10-13T00:30:21;17.10;99.90
12119;DHT22;6123;48.864;9.200;2023-10-13T00:32:58;17.10;99.90
12119;DHT22;6123;48.864;9.200;2023-10-13T00:35:26;17.10;99.90
12119;DHT22;6123;48.864;9.200;2023-10-13T00:37:58;17.10;99.90
12119;DHT22;6123;48.864;9.200;2023-10-13T00:40:30;17.10;99.90
12119;DHT22;6123;48.864;9.200;2023-10-13T00:42:59;17.10;99.90
12119;DHT22;6123;48.864;9.200;2023-10-13T00:48:32;17.00;99.90
12119;DHT22;6123;48.864;9.200;2023-10-13T00:51:01;17.00;99.90
12119;DHT22;6123;48.864;9.200;2023-10-13T00:53:34;16.90;99.90
12119;DHT22;6123;48.864;9.200;2023-10-13T00:56:03;16.90;99.90
12119;DHT22;6123;48.864;9.200;2023-10-13T00:58:36;16.70;99.90
12119;DHT22;6123;48.864;9.200;2023-10-13T01:01:04;16.70;99.90
12119;DHT22;6123;48.864;9.200;2023-10-13T01:03:48;16.70;99.90
12119;DHT22;6123;48.864;9.200;2023-10-13T01:06:17;16.70;99.90
12119;DHT22;6123;48.864;9.200;2023-10-13T01:08:46;16.60;99.90
12119;DHT22;6123;48.864;9.200;2023-10-13T01:11:19;16.50;99.90
12119;DHT22;6123;48.864;9.200;2023-10-13T01:13:46;16.50;99.90
12119;DHT22;6123;48.864;9.200;2023-10-13T01:16:20;16.60;99.90
12119;DHT22;6123;48.864;9.200;2023-10-13T01:18:49;16.60;99.90
12119;DHT22;6123;48.864;9.200;2023-10-13T01:21:18;16.50;99.90
12119;DHT22;6123;48.864;9.200;2023-10-13T01:23:46;16.60;99.90
12119;DHT22;6123;48.864;9.200;2023-10-13T01:26:13;16.70;99.90
12119;DHT22;6123;48.864;9.200;2023-10-13T01:28:46;16.70;99.90
12119;DHT22;6123;48.864;9.200;2023-10-13T01:31:13;16.80;99.90
12119;DHT22;6123;48.864;9.200;2023-10-13T01:33:50;16.80;99.90
12119;DHT22;6123;48.864;9.200;2023-10-13T01:36:20;16.70;99.90
12119;DHT22;6123;48.864;9.200;2023-10-13T01:38:45;16.40;99.90
12119;DHT22;6123;48.864;9.200;2023-10-13T01:41:12;16.40;99.90
12119;DHT22;6123;48.864;9.200;2023-10-13T01:43:39;16.60;99.90
12119;DHT22;6123;48.864;9.200;2023-10-13T01:46:04;16.70;99.90
12119;DHT22;6123;48.864;9.200;2023-10-13T01:48:30;16.70;99.90
12119;DHT22;6123;48.864;9.200;2023-10-13T01:50:58;16.80;99.90
12119;DHT22;6123;48.864;9.200;2023-10-13T01:53:26;16.90;99.90
12119;DHT22;6123;48.864;9.200;2023-10-13T01:55:54;16.90;99.90
12119;DHT22;6123;48.864;9.200;2023-10-13T01:58:23;17.30;99.90
12119;DHT22;6123;48.864;9.200;2023-10-13T02:00:51;17.20;99.90
12119;DHT22;6123;48.864;9.200;2023-10-13T02:03:17;17.30;99.90
12119;DHT22;6123;48.864;9.200;2023-10-13T02:05:43;17.20;99.90
12119;DHT22;6123;48.864;9.200;2023-10-13T02:08:16;17.30;99.90
12119;DHT22;6123;48.864;9.200;2023-10-13T02:10:50;17.50;99.90
12119;DHT22;6123;48.864;9.200;2023-10-13T02:13:18;17.70;99.90
12119;DHT22;6123;48.864;9.200;2023-10-13T02:15:45;17.80;99.90
12119;DHT22;6123;48.864;9.200;2023-10-13T02:18:14;17.70;99.90
12119;DHT22;6123;48.864;9.200;2023-10-13T02:20:46;17.70;99.90
12119;DHT22;6123;48.864;9.200;2023-10-13T02:23:12;17.70;99.90
12119;DHT22;6123;48.864;9.200;2023-10-13T02:25:37;17.70;99.90
12119;DHT22;6123;48.864;9.200;2023-10-13T02:28:11;17.70;99.90
12119;DHT22;6123;48.864;9.200;2023-10-13T02:30:41;17.70;99.90
12119;DHT22;6123;48.864;9.200;2023-10-13T02:33:14;17.80;99.90
12119;DHT22;6123;48.864;9.200;2023-10-13T02:35:40;17.70;99.90
12119;DHT22;6123;48.864;9.200;2023-10-13T02:38:16;17.70;99.90
12119;DHT22;6123;48.864;9.200;2023-10-13T02:40:51;17.70;99.90
12119;DHT22;6123;48.864;9.200;2023-10-13T02:43:17;17.80;99.90
12119;DHT22;6123;48.864;9.200;2023-10-13T02:45:52;17.80;99.90
12119;DHT22;6123;48.864;9.200;2023-10-13T02:48:24;17.80;99.90
12119;DHT22;6123;48.864;9.200;2023-10-13T02:50:56;17.70;99.90
12119;DHT22;6123;48.864;9.200;2023-10-13T02:53:22;17.70;99.90
12119;DHT22;6123;48.864;9.200;2023-10-13T02:55:51;17.70;99.90
12119;DHT22;6123;48.864;9.200;2023-10-13T02:58:18;17.70;99.90
12119;DHT22;6123;48.864;9.200;2023-10-13T03:00:44;17.70;99.90
12119;DHT22;6123;48.864;9.200;2023-10-13T03:03:09;17.60;99.90
12119;DHT22;6123;48.864;9.200;2023-10-13T03:05:35;17.50;99.90
12119;DHT22;6123;48.864;9.200;2023-10-13T03:08:05;17.40;99.90
12119;DHT22;6123;48.864;9.200;2023-10-13T03:10:30;17.20;99.90
12119;DHT22;6123;48.864;9.200;2023-10-13T03:12:56;17.10;99.90
12119;DHT22;6123;48.864;9.200;2023-10-13T03:15:21;17.10;99.90
12119;DHT22;6123;48.864;9.200;2023-10-13T03:17:55;17.10;99.90
12119;DHT22;6123;48.864;9.200;2023-10-13T03:20:24;17.10;99.90
12119;DHT22;6123;48.864;9.200;2023-10-13T03:22:55;17.10;99.90
12119;DHT22;6123;48.864;9.200;2023-10-13T03:25:21;17.10;99.90
12119;DHT22;6123;48.864;9.200;2023-10-13T03:28:10;17.10;99.90
12119;DHT22;6123;48.864;9.200;2023-10-13T03:30:39;16.90;99.90
12119;DHT22;6123;48.864;9.200;2023-10-13T03:33:07;16.90;99.90
12119;DHT22;6123;48.864;9.200;2023-10-13T03:35:37;16.80;99.90
12119;DHT22;6123;48.864;9.200;2023-10-13T03:38:04;16.80;99.90
12119;DHT22;6123;48.864;9.200;2023-10-13T03:40:30;16.80;99.90
12119;DHT22;6123;48.864;9.200;2023-10-13T03:42:57;16.70;99.90
12119;DHT22;6123;48.864;9.200;2023-10-13T03:45:40;16.60;99.90
12119;DHT22;6123;48.864;9.200;2023-10-13T03:48:11;16.60;99.90
12119;DHT22;6123;48.864;9.200;2023-10-13T03:50:46;16.60;99.90
12119;DHT22;6123;48.864;9.200;2023-10-13T03:53:14;16.60;99.90
12119;DHT22;6123;48.864;9.200;2023-10-13T03:55:40;16.50;99.90
12119;DHT22;6123;48.864;9.200;2023-10-13T03:58:06;16.50;99.90
12119;DHT22;6123;48.864;9.200;2023-10-13T04:00:32;16.50;99.90
12119;DHT22;6123;48.864;9.200;2023-10-13T04:02:58;16.50;99.90
12119;DHT22;6123;48.864;9.200;2023-10-13T04:05:41;16.50;99.90
12119;DHT22;6123;48.864;9.200;2023-10-13T04:08:12;16.50;99.90
12119;DHT22;6123;48.864;9.200;2023-10-13T04:10:54;16.50;99.90
12119;DHT22;6123;48.864;9.200;2023-10-13T04:13:20;16.60;99.90
12119;DHT22;6123;48.864;9.200;2023-10-13T04:16:07;16.60;99.90
12119;DHT22;6123;48.864;9.200;2023-10-13T04:18:51;16.50;99.90
12119;DHT22;6123;48.864;9.200;2023-10-13T04:21:20;16.30;99.90
12119;DHT22;6123;48.864;9.200;2023-10-13T04:24:12;16.30;99.90
12119;DHT22;6123;48.864;9.200;2023-10-13T04:26:48;16.20;99.90
12119;DHT22;6123;48.864;9.200;2023-10-13T04:29:44;16.20;99.90
12119;DHT22;6123;48.864;9.200;2023-10-13T04:32:22;16.20;99.90
12119;DHT22;6123;48.864;9.200;2023-10-13T04:34:58;16.20;99.90
12119;DHT22;6123;48.864;9.200;2023-10-13T04:37:36;16.20;99.90
12119;DHT22;6123;48.864;9.200;2023-10-13T04:40:21;16.30;99.90
12119;DHT22;6123;48.864;9.200;2023-10-13T04:42:54;16.30;99.90
12119;DHT22;6123;48.864;9.200;2023-10-13T04:45:22;16.30;99.90
12119;DHT22;6123;48.864;9.200;2023-10-13T04:47:59;16.40;99.90
12119;DHT22;6123;48.864;9.200;2023-10-13T04:50:59;16.50;99.90
12119;DHT22;6123;48.864;9.200;2023-10-13T04:53:45;16.40;99.90
12119;DHT22;6123;48.864;9.200;2023-10-13T04:56:37;16.40;99.90
12119;DHT22;6123;48.864;9.200;2023-10-13T04:59:21;16.40;99.90
12119;DHT22;6123;48.864;9.200;2023-10-13T05:02:19;16.30;99.90
12119;DHT22;6123;48.864;9.200;2023-10-13T05:05:03;16.30;99.90
12119;DHT22;6123;48.864;9.200;2023-10-13T05:07:34;16.20;99.90
12119;DHT22;6123;48.864;9.200;2023-10-13T05:10:18;16.10;99.90
12119;DHT22;6123;48.864;9.200;2023-10-13T05:13:02;16.10;99.90
12119;DHT22;6123;48.864;9.200;2023-10-13T05:15:48;16.00;99.90
12119;DHT22;6123;48.864;9.200;2023-10-13T05:18:32;16.00;99.90
12119;DHT22;6123;48.864;9.200;2023-10-13T05:21:17;16.00;99.90
12119;DHT22;6123;48.864;9.200;2023-10-13T05:24:02;15.90;99.90
12119;DHT22;6123;48.864;9.200;2023-10-13T05:26:46;15.90;99.90
12119;DHT22;6123;48.864;9.200;2023-10-13T05:29:30;15.90;99.90
12119;DHT22;6123;48.864;9.200;2023-10-13T05:32:14;15.90;99.90
12119;DHT22;6123;48.864;9.200;2023-10-13T05:34:58;15.80;99.90
12119;DHT22;6123;48.864;9.200;2023-10-13T05:37:42;15.70;99.90
12119;DHT22;6123;48.864;9.200;2023-10-13T05:40:26;15.70;99.90
12119;DHT22;6123;48.864;9.200;2023-10-13T05:43:10;15.60;99.90
12119;DHT22;6123;48.864;9.200;2023-10-13T05:46:01;15.70;99.90
12119;DHT22;6123;48.864;9.200;2023-10-13T05:48:45;15.60;99.90
12119;DHT22;6123;48.864;9.200;2023-10-13T05:54:17;15.70;99.90
12119;DHT22;6123;48.864;9.200;2023-10-13T05:56:48;15.70;99.90
12119;DHT22;6123;48.864;9.200;2023-10-13T05:59:34;15.80;99.90
12119;DHT22;6123;48.864;9.200;2023-10-13T06:02:19;15.80;99.90
12119;DHT22;6123;48.864;9.200;2023-10-13T06:05:11;15.80;99.90
12119;DHT22;6123;48.864;9.200;2023-10-13T06:07:55;15.90;99.90
12119;DHT22;6123;48.864;9.200;2023-10-13T06:10:40;15.90;99.90
12119;DHT22;6123;48.864;9.200;2023-10-13T06:13:25;15.90;99.90
12119;DHT22;6123;48.864;9.200;2023-10-13T06:16:11;16.00;99.90
12119;DHT22;6123;48.864;9.200;2023-10-13T06:18:55;16.10;99.90
12119;DHT22;6123;48.864;9.200;2023-10-13T06:21:40;16.10;99.90
12119;DHT22;6123;48.864;9.200;2023-10-13T06:24:24;16.10;99.90
12119;DHT22;6123;48.864;9.200;2023-10-13T06:27:08;16.20;99.90
12119;DHT22;6123;48.864;9.200;2023-10-13T06:29:52;16.20;99.90
12119;DHT22;6123;48.864;9.200;2023-10-13T06:32:21;16.30;99.90
12119;DHT22;6123;48.864;9.200;2023-10-13T06:34:54;16.30;99.90
12119;DHT22;6123;48.864;9.200;2023-10-13T06:37:26;16.40;99.90
12119;DHT22;6123;48.864;9.200;2023-10-13T06:40:11;16.50;99.90
12119;DHT22;6123;48.864;9.200;2023-10-13T06:42:59;16.50;99.90
12119;DHT22;6123;48.864;9.200;2023-10-13T06:45:39;16.60;99.90
12119;DHT22;6123;48.864;9.200;2023-10-13T06:48:05;16.60;99.90
12119;DHT22;6123;48.864;9.200;2023-10-13T06:50:31;16.60;99.90
12119;DHT22;6123;48.864;9.200;2023-10-13T06:53:05;16.60;99.90
12119;DHT22;6123;48.864;9.200;2023-10-13T06:55:30;16.60;99.90
12119;DHT22;6123;48.864;9.200;2023-10-13T06:58:01;16.70;99.90
12119;DHT22;6123;48.864;9.200;2023-10-13T07:00:27;16.70;99.90
12119;DHT22;6123;48.864;9.200;2023-10-13T07:03:00;16.70;99.90
12119;DHT22;6123;48.864;9.200;2023-10-13T07:05:39;16.70;99.90
12119;DHT22;6123;48.864;9.200;2023-10-13T07:08:08;16.80;99.90
12119;DHT22;6123;48.864;9.200;2023-10-13T07:10:35;16.80;99.90
12119;DHT22;6123;48.864;9.200;2023-10-13T07:13:14;16.90;99.90
12119;DHT22;6123;48.864;9.200;2023-10-13T07:15:40;16.90;99.90
12119;DHT22;6123;48.864;9.200;2023-10-13T07:18:14;17.00;99.90
12119;DHT22;6123;48.864;9.200;2023-10-13T07:20:41;17.00;99.90
12119;DHT22;6123;48.864;9.200;2023-10-13T07:23:13;17.20;99.90
12119;DHT22;6123;48.864;9.200;2023-10-13T07:25:54;17.30;99.90
12119;DHT22;6123;48.864;9.200;2023-10-13T07:28:21;17.40;99.90
12119;DHT22;6123;48.864;9.200;2023-10-13T07:30:47;17.60;99.90
12119;DHT22;6123;48.864;9.200;2023-10-13T07:33:19;17.80;99.90
12119;DHT22;6123;48.864;9.200;2023-10-13T07:35:59;17.90;99.90
12119;DHT22;6123;48.864;9.200;2023-10-13T07:38:25;18.10;99.90
12119;DHT22;6123;48.864;9.200;2023-10-13T07:40:56;18.30;99.90
12119;DHT22;6123;48.864;9.200;2023-10-13T07:43:32;18.40;99.90
12119;DHT22;6123;48.864;9.200;2023-10-13T07:45:58;18.50;99.90
12119;DHT22;6123;48.864;9.200;2023-10-13T07:48:24;18.60;99.90
12119;DHT22;6123;48.864;9.200;2023-10-13T07:51:05;18.70;99.90
12119;DHT22;6123;48.864;9.200;2023-10-13T07:53:35;18.90;99.90
12119;DHT22;6123;48.864;9.200;2023-10-13T07:56:04;19.00;99.90
12119;DHT22;6123;48.864;9.200;2023-10-13T07:58:31;19.10;99.90
12119;DHT22;6123;48.864;9.200;2023-10-13T08:01:00;19.20;99.90
12119;DHT22;6123;48.864;9.200;2023-10-13T08:03:41;19.30;99.90
12119;DHT22;6123;48.864;9.200;2023-10-13T08:06:11;19.50;99.90
12119;DHT22;6123;48.864;9.200;2023-10-13T08:08:38;19.70;99.90
12119;DHT22;6123;48.864;9.200;2023-10-13T08:11:14;19.80;99.90
12119;DHT22;6123;48.864;9.200;2023-10-13T08:13:52;19.80;99.90
12119;DHT22;6123;48.864;9.200;2023-10-13T08:16:30;20.00;99.90
12119;DHT22;6123;48.864;9.200;2023-10-13T08:19:16;20.20;99.90
12119;DHT22;6123;48.864;9.200;2023-10-13T08:21:45;20.20;99.90
12119;DHT22;6123;48.864;9.200;2023-10-13T08:24:24;20.30;99.90
12119;DHT22;6123;48.864;9.200;2023-10-13T08:27:07;20.40;99.90
12119;DHT22;6123;48.864;9.200;2023-10-13T08:29:46;20.50;99.00
12119;DHT22;6123;48.864;9.200;2023-10-13T08:32:34;20.50;98.40
12119;DHT22;6123;48.864;9.200;2023-10-13T08:35:20;20.60;98.10
12119;DHT22;6123;48.864;9.200;2023-10-13T08:38:00;20.80;97.40
12119;DHT22;6123;48.864;9.200;2023-10-13T08:40:29;21.00;96.30
12119;DHT22;6123;48.864;9.200;2023-10-13T08:43:13;21.20;94.60
12119;DHT22;6123;48.864;9.200;2023-10-13T08:45:41;21.50;93.90
12119;DHT22;6123;48.864;9.200;2023-10-13T08:48:13;21.50;92.40
12119;DHT22;6123;48.864;9.200;2023-10-13T08:50:45;21.70;91.50
12119;DHT22;6123;48.864;9.200;2023-10-13T08:56:05;22.10;89.40
12119;DHT22;6123;48.864;9.200;2023-10-13T08:58:45;22.30;83.60
12119;DHT22;6123;48.864;9.200;2023-10-13T09:01:25;22.40;82.60
12119;DHT22;6123;48.864;9.200;2023-10-13T09:07:05;22.60;79.00
12119;DHT22;6123;48.864;9.200;2023-10-13T09:09:33;22.80;77.20
12119;DHT22;6123;48.864;9.200;2023-10-13T09:12:29;23.10;74.00
12119;DHT22;6123;48.864;9.200;2023-10-13T09:14:57;23.10;69.90
12119;DHT22;6123;48.864;9.200;2023-10-13T09:17:28;23.10;69.10
12119;DHT22;6123;48.864;9.200;2023-10-13T09:20:01;23.30;67.50
12119;DHT22;6123;48.864;9.200;2023-10-13T09:22:52;23.50;65.00
12119;DHT22;6123;48.864;9.200;2023-10-13T09:25:39;23.60;64.20
12119;DHT22;6123;48.864;9.200;2023-10-13T09:28:19;23.70;60.00
12119;DHT22;6123;48.864;9.200;2023-10-13T09:30:46;23.90;60.30
12119;DHT22;6123;48.864;9.200;2023-10-13T09:33:12;24.00;57.60
12119;DHT22;6123;48.864;9.200;2023-10-13T09:35:44;24.10;57.00
12119;DHT22;6123;48.864;9.200;2023-10-13T09:38:18;24.40;57.10
12119;DHT22;6123;48.864;9.200;2023-10-13T09:40:44;24.30;55.50
12119;DHT22;6123;48.864;9.200;2023-10-13T09:43:17;24.50;54.90
12119;DHT22;6123;48.864;9.200;2023-10-13T09:45:46;24.60;54.10
12119;DHT22;6123;48.864;9.200;2023-10-13T09:48:44;24.50;54.10
12119;DHT22;6123;48.864;9.200;2023-10-13T09:51:13;24.40;53.00
12119;DHT22;6123;48.864;9.200;2023-10-13T09:53:40;24.40;53.30
12119;DHT22;6123;48.864;9.200;2023-10-13T09:56:12;24.50;53.40
12119;DHT22;6123;48.864;9.200;2023-10-13T09:58:54;24.70;51.40
12119;DHT22;6123;48.864;9.200;2023-10-13T10:01:24;25.00;50.00
12119;DHT22;6123;48.864;9.200;2023-10-13T10:04:10;25.10;47.70
12119;DHT22;6123;48.864;9.200;2023-10-13T10:06:58;25.30;43.10
12119;DHT22;6123;48.864;9.200;2023-10-13T10:09:29;25.40;38.60
12119;DHT22;6123;48.864;9.200;2023-10-13T10:15:19;25.90;36.90
12119;DHT22;6123;48.864;9.200;2023-10-13T10:17:53;26.20;35.10
12119;DHT22;6123;48.864;9.200;2023-10-13T10:20:31;26.40;35.10
12119;DHT22;6123;48.864;9.200;2023-10-13T10:23:08;26.50;32.70
12119;DHT22;6123;48.864;9.200;2023-10-13T10:25:38;26.70;33.80
12119;DHT22;6123;48.864;9.200;2023-10-13T10:28:05;26.70;30.90
12119;DHT22;6123;48.864;9.200;2023-10-13T10:30:33;26.50;30.30
12119;DHT22;6123;48.864;9.200;2023-10-13T10:33:00;26.40;31.40
12119;DHT22;6123;48.864;9.200;2023-10-13T10:35:27;26.20;30.70
12119;DHT22;6123;48.864;9.200;2023-10-13T10:38:07;25.90;30.70
12119;DHT22;6123;48.864;9.200;2023-10-13T10:40:54;25.70;31.30
12119;DHT22;6123;48.864;9.200;2023-10-13T10:43:30;25.60;31.10
12119;DHT22;6123;48.864;9.200;2023-10-13T10:46:17;25.80;31.50
12119;DHT22;6123;48.864;9.200;2023-10-13T10:48:46;26.00;30.70
12119;DHT22;6123;48.864;9.200;2023-10-13T10:51:14;26.20;30.20
12119;DHT22;6123;48.864;9.200;2023-10-13T10:53:49;26.50;30.00
12119;DHT22;6123;48.864;9.200;2023-10-13T10:56:17;26.50;29.70
12119;DHT22;6123;48.864;9.200;2023-10-13T10:58:46;26.50;29.20
12119;DHT22;6123;48.864;9.200;2023-10-13T11:01:12;26.60;28.90
12119;DHT22;6123;48.864;9.200;2023-10-13T11:04:01;27.00;28.40
12119;DHT22;6123;48.864;9.200;2023-10-13T11:06:37;26.80;27.70
12119;DHT22;6123;48.864;9.200;2023-10-13T11:09:08;26.80;27.80
12119;DHT22;6123;48.864;9.200;2023-10-13T11:11:47;27.10;27.50
12119;DHT22;6123;48.864;9.200;2023-10-13T11:14:27;27.50;26.90
12119;DHT22;6123;48.864;9.200;2023-10-13T11:16:54;27.80;26.00
12119;DHT22;6123;48.864;9.200;2023-10-13T11:19:21;28.10;25.60
12119;DHT22;6123;48.864;9.200;2023-10-13T11:21:52;28.30;25.40
12119;DHT22;6123;48.864;9.200;2023-10-13T11:24:18;28.50;25.20
12119;DHT22;6123;48.864;9.200;2023-10-13T11:26:47;28.60;24.30
12119;DHT22;6123;48.864;9.200;2023-10-13T11:29:16;28.70;24.50
12119;DHT22;6123;48.864;9.200;2023-10-13T11:31:47;28.80;23.30
12119;DHT22;6123;48.864;9.200;2023-10-13T11:34:20;28.70;22.70
12119;DHT22;6123;48.864;9.200;2023-10-13T11:36:47;29.00;22.90
12119;DHT22;6123;48.864;9.200;2023-10-13T11:39:12;29.20;21.90
12119;DHT22;6123;48.864;9.200;2023-10-13T11:41:44;29.10;21.80
12119;DHT22;6123;48.864;9.200;2023-10-13T11:44:19;29.20;21.50
12119;DHT22;6123;48.864;9.200;2023-10-13T11:46:46;29.40;21.50
12119;DHT22;6123;48.864;9.200;2023-10-13T11:49:12;29.30;20.70
12119;DHT22;6123;48.864;9.200;2023-10-13T11:51:45;29.30;20.50
12119;DHT22;6123;48.864;9.200;2023-10-13T11:54:22;29.10;19.90
12119;DHT22;6123;48.864;9.200;2023-10-13T11:56:48;29.20;19.80
12119;DHT22;6123;48.864;9.200;2023-10-13T11:59:15;29.40;20.10
12119;DHT22;6123;48.864;9.200;2023-10-13T12:01:44;29.30;19.40
12119;DHT22;6123;48.864;9.200;2023-10-13T12:04:30;29.20;19.20
12119;DHT22;6123;48.864;9.200;2023-10-13T12:06:58;29.40;19.50
12119;DHT22;6123;48.864;9.200;2023-10-13T12:09:42;29.90;19.90
12119;DHT22;6123;48.864;9.200;2023-10-13T12:12:24;29.70;18.40
12119;DHT22;6123;48.864;9.200;2023-10-13T12:14:49;29.40;18.20
12119;DHT22;6123;48.864;9.200;2023-10-13T12:17:18;29.50;18.80
12119;DHT22;6123;48.864;9.200;2023-10-13T12:19:51;29.60;17.90
12119;DHT22;6123;48.864;9.200;2023-10-13T12:22:17;29.50;18.30
12119;DHT22;6123;48.864;9.200;2023-10-13T12:24:51;29.80;17.80
12119;DHT22;6123;48.864;9.200;2023-10-13T12:27:19;29.70;18.00
12119;DHT22;6123;48.864;9.200;2023-10-13T12:29:48;29.90;17.90
12119;DHT22;6123;48.864;9.200;2023-10-13T12:32:14;29.80;18.00
12119;DHT22;6123;48.864;9.200;2023-10-13T12:34:46;30.00;17.40
12119;DHT22;6123;48.864;9.200;2023-10-13T12:37:31;29.90;17.20
12119;DHT22;6123;48.864;9.200;2023-10-13T12:40:19;30.10;17.30
12119;DHT22;6123;48.864;9.200;2023-10-13T12:43:04;30.00;17.20
12119;DHT22;6123;48.864;9.200;2023-10-13T12:45:50;29.90;17.40
12119;DHT22;6123;48.864;9.200;2023-10-13T12:48:36;29.90;17.10
12119;DHT22;6123;48.864;9.200;2023-10-13T12:51:21;30.30;16.60
12119;DHT22;6123;48.864;9.200;2023-10-13T12:54:00;30.00;16.80
12119;DHT22;6123;48.864;9.200;2023-10-13T12:56:39;29.70;17.50
12119;DHT22;6123;48.864;9.200;2023-10-13T12:59:09;29.70;17.40
12119;DHT22;6123;48.864;9.200;2023-10-13T13:01:39;29.60;17.30
12119;DHT22;6123;48.864;9.200;2023-10-13T13:04:08;29.40;17.30
12119;DHT22;6123;48.864;9.200;2023-10-13T13:06:43;29.50;17.50
12119;DHT22;6123;48.864;9.200;2023-10-13T13:09:09;29.10;17.90
12119;DHT22;6123;48.864;9.200;2023-10-13T13:11:35;29.00;18.00
12119;DHT22;6123;48.864;9.200;2023-10-13T13:14:08;28.90;18.00
12119;DHT22;6123;48.864;9.200;2023-10-13T13:16:34;29.50;17.60
12119;DHT22;6123;48.864;9.200;2023-10-13T13:19:00;30.10;17.10
12119;DHT22;6123;48.864;9.200;2023-10-13T13:21:36;30.00;16.40
12119;DHT22;6123;48.864;9.200;2023-10-13T13:24:01;30.00;16.80
12119;DHT22;6123;48.864;9.200;2023-10-13T13:26:29;30.00;16.50
12119;DHT22;6123;48.864;9.200;2023-10-13T13:28:56;30.10;16.50
12119;DHT22;6123;48.864;9.200;2023-10-13T13:31:22;30.40;16.70
12119;DHT22;6123;48.864;9.200;2023-10-13T13:33:52;30.80;16.30
12119;DHT22;6123;48.864;9.200;2023-10-13T13:36:18;30.90;14.10
12119;DHT22;6123;48.864;9.200;2023-10-13T13:38:45;30.90;14.20
12119;DHT22;6123;48.864;9.200;2023-10-13T13:41:20;31.10;14.40
12119;DHT22;6123;48.864;9.200;2023-10-13T13:43:48;30.90;13.20
12119;DHT22;6123;48.864;9.200;2023-10-13T13:46:20;31.00;13.20
12119;DHT22;6123;48.864;9.200;2023-10-13T13:48:59;31.10;12.90
12119;DHT22;6123;48.864;9.200;2023-10-13T13:51:27;31.00;12.50
12119;DHT22;6123;48.864;9.200;2023-10-13T13:53:54;30.90;13.20
12119;DHT22;6123;48.864;9.200;2023-10-13T13:56:20;31.00;12.80
12119;DHT22;6123;48.864;9.200;2023-10-13T13:58:47;31.00;12.90
12119;DHT22;6123;48.864;9.200;2023-10-13T14:01:14;31.00;12.70
12119;DHT22;6123;48.864;9.200;2023-10-13T14:03:43;31.00;12.60
12119;DHT22;6123;48.864;9.200;2023-10-13T14:06:16;31.20;12.50
12119;DHT22;6123;48.864;9.200;2023-10-13T14:08:44;31.00;12.60
12119;DHT22;6123;48.864;9.200;2023-10-13T14:11:10;31.00;13.00
12119;DHT22;6123;48.864;9.200;2023-10-13T14:13:39;31.50;12.60
12119;DHT22;6123;48.864;9.200;2023-10-13T14:16:18;31.30;12.00
12119;DHT22;6123;48.864;9.200;2023-10-13T14:18:45;31.10;12.20
12119;DHT22;6123;48.864;9.200;2023-10-13T14:21:11;31.00;12.10
12119;DHT22;6123;48.864;9.200;2023-10-13T14:23:49;30.90;12.10
12119;DHT22;6123;48.864;9.200;2023-10-13T14:26:16;31.20;12.40
12119;DHT22;6123;48.864;9.200;2023-10-13T14:28:51;31.10;12.20
12119;DHT22;6123;48.864;9.200;2023-10-13T14:31:35;30.90;12.20
12119;DHT22;6123;48.864;9.200;2023-10-13T14:34:05;31.00;12.20
12119;DHT22;6123;48.864;9.200;2023-10-13T14:36:32;30.90;12.20
12119;DHT22;6123;48.864;9.200;2023-10-13T14:39:02;30.90;12.00
12119;DHT22;6123;48.864;9.200;2023-10-13T14:41:28;30.80;12.30
12119;DHT22;6123;48.864;9.200;2023-10-13T14:43:56;30.60;12.00
12119;DHT22;6123;48.864;9.200;2023-10-13T14:46:22;30.60;12.10
12119;DHT22;6123;48.864;9.200;2023-10-13T14:48:54;30.50;12.40
12119;DHT22;6123;48.864;9.200;2023-10-13T14:51:20;30.60;12.30
12119;DHT22;6123;48.864;9.200;2023-10-13T14:53:46;30.80;12.00
12119;DHT22;6123;48.864;9.200;2023-10-13T14:56:13;30.80;12.20
12119;DHT22;6123;48.864;9.200;2023-10-13T14:58:39;31.00;12.30
12119;DHT22;6123;48.864;9.200;2023-10-13T15:01:15;31.20;12.20
12119;DHT22;6123;48.864;9.200;2023-10-13T15:03:45;31.20;11.90
12119;DHT22;6123;48.864;9.200;2023-10-13T15:06:18;31.00;11.60
12119;DHT22;6123;48.864;9.200;2023-10-13T15:08:44;31.00;11.20
12119;DHT22;6123;48.864;9.200;2023-10-13T15:11:12;31.00;11.30
12119;DHT22;6123;48.864;9.200;2023-10-13T15:13:41;31.00;11.00
12119;DHT22;6123;48.864;9.200;2023-10-13T15:16:19;30.90;11.00
12119;DHT22;6123;48.864;9.200;2023-10-13T15:18:46;30.90;11.00
12119;DHT22;6123;48.864;9.200;2023-10-13T15:21:24;31.00;10.70
12119;DHT22;6123;48.864;9.200;2023-10-13T15:24:03;31.10;10.60
12119;DHT22;6123;48.864;9.200;2023-10-13T15:26:41;31.10;10.40
12119;DHT22;6123;48.864;9.200;2023-10-13T15:29:10;31.60;10.30
12119;DHT22;6123;48.864;9.200;2023-10-13T15:31:38;31.70;10.00
12119;DHT22;6123;48.864;9.200;2023-10-13T15:34:11;32.10;9.70
12119;DHT22;6123;48.864;9.200;2023-10-13T15:36:41;32.50;9.30
12119;DHT22;6123;48.864;9.200;2023-10-13T15:39:08;32.70;8.60
12119;DHT22;6123;48.864;9.200;2023-10-13T15:41:36;32.80;8.10
12119;DHT22;6123;48.864;9.200;2023-10-13T15:44:03;32.70;8.10
12119;DHT22;6123;48.864;9.200;2023-10-13T15:46:34;32.70;7.90
12119;DHT22;6123;48.864;9.200;2023-10-13T15:49:00;32.50;7.50
12119;DHT22;6123;48.864;9.200;2023-10-13T15:51:28;32.20;7.50
12119;DHT22;6123;48.864;9.200;2023-10-13T15:53:55;31.10;8.00
12119;DHT22;6123;48.864;9.200;2023-10-13T15:56:21;30.10;9.10
12119;DHT22;6123;48.864;9.200;2023-10-13T15:58:47;29.50;9.80
12119;DHT22;6123;48.864;9.200;2023-10-13T16:01:16;29.10;10.30
12119;DHT22;6123;48.864;9.200;2023-10-13T16:03:43;28.70;10.40
12119;DHT22;6123;48.864;9.200;2023-10-13T16:06:13;28.40;10.80
12119;DHT22;6123;48.864;9.200;2023-10-13T16:08:39;28.20;11.00
12119;DHT22;6123;48.864;9.200;2023-10-13T16:11:09;28.00;11.20
12119;DHT22;6123;48.864;9.200;2023-10-13T16:13:40;27.90;11.10
12119;DHT22;6123;48.864;9.200;2023-10-13T16:16:05;27.70;11.20
12119;DHT22;6123;48.864;9.200;2023-10-13T16:18:32;27.60;11.30
12119;DHT22;6123;48.864;9.200;2023-10-13T16:21:01;27.40;11.50
12119;DHT22;6123;48.864;9.200;2023-10-13T16:23:29;27.20;11.20
12119;DHT22;6123;48.864;9.200;2023-10-13T16:25:55;27.10;11.30
12119;DHT22;6123;48.864;9.200;2023-10-13T16:28:24;27.00;11.40
12119;DHT22;6123;48.864;9.200;2023-10-13T16:30:49;27.00;11.60
12119;DHT22;6123;48.864;9.200;2023-10-13T16:33:19;26.80;11.70
12119;DHT22;6123;48.864;9.200;2023-10-13T16:35:45;26.70;11.80
12119;DHT22;6123;48.864;9.200;2023-10-13T16:38:15;26.60;12.00